createdAt,value
2022-08-05T00:01:27.635Z,2.70
2022-08-05T00:03:57.166Z,2.63
2022-08-05T00:06:30.732Z,3.43
2022-08-05T00:09:00.218Z,2.60
2022-08-05T00:11:30.636Z,2.70
2022-08-05T00:14:02.325Z,2.70
2022-08-05T00:16:52.585Z,2.53
2022-08-05T00:19:25.019Z,2.70
2022-08-05T00:22:00.455Z,2.80
2022-08-05T00:24:30.794Z,2.90
2022-08-05T00:26:58.540Z,2.60
2022-08-05T00:29:25.865Z,3.10
2022-08-05T00:32:12.124Z,2.60
2022-08-05T00:34:53.950Z,2.70
2022-08-05T00:37:27.267Z,2.57
2022-08-05T00:40:13.348Z,2.90
2022-08-05T00:42:40.025Z,2.47
2022-08-05T00:45:08.799Z,2.90
2022-08-05T00:47:56.854Z,2.83
2022-08-05T00:50:25.106Z,2.90
2022-08-05T00:52:52.163Z,2.70
2022-08-05T00:55:21.356Z,2.67
2022-08-05T00:57:58.325Z,3.03
2022-08-05T01:00:26.345Z,2.90
2022-08-05T01:02:52.832Z,2.70
2022-08-05T01:05:19.427Z,3.00
2022-08-05T01:08:30.361Z,3.03
2022-08-05T01:10:41.780Z,3.33
2022-08-05T01:13:27.143Z,3.20
2022-08-05T01:16:13.132Z,2.67
2022-08-05T01:18:42.333Z,3.13
2022-08-05T01:21:22.655Z,3.10
2022-08-05T01:23:58.068Z,3.30
2022-08-05T01:26:39.559Z,2.97
2022-08-05T01:29:11.076Z,3.00
2022-08-05T01:31:42.733Z,2.57
2022-08-05T01:34:27.182Z,3.30
2022-08-05T01:37:05.652Z,3.97
2022-08-05T01:39:46.184Z,3.37
2022-08-05T01:42:15.220Z,3.50
2022-08-05T01:44:42.976Z,4.30
2022-08-05T01:47:12.430Z,4.63
2022-08-05T01:50:00.487Z,4.17
2022-08-05T01:52:28.006Z,4.03
2022-08-05T01:54:56.855Z,4.83
2022-08-05T01:58:12.974Z,4.30
2022-08-05T02:00:14.775Z,4.27
2022-08-05T02:02:46.510Z,4.30
2022-08-05T02:05:23.550Z,4.10
2022-08-05T02:08:00.343Z,3.70
2022-08-05T02:10:29.440Z,4.37
2022-08-05T02:13:00.137Z,4.40
2022-08-05T02:15:33.292Z,3.97
2022-08-05T02:18:27.704Z,4.40
2022-08-05T02:20:54.306Z,3.80
2022-08-05T02:23:28.150Z,3.47
2022-08-05T02:25:54.852Z,3.20
2022-08-05T02:28:29.297Z,2.87
2022-08-05T02:30:59.202Z,3.83
2022-08-05T02:33:38.472Z,4.23
2022-08-05T02:36:06.198Z,4.47
2022-08-05T02:38:35.813Z,5.53
2022-08-05T02:41:14.448Z,4.93
2022-08-05T02:44:02.950Z,5.07
2022-08-05T02:46:31.327Z,5.50
2022-08-05T02:48:57.799Z,4.80
2022-08-05T02:51:28.473Z,5.17
2022-08-05T02:54:35.814Z,4.43
2022-08-05T02:56:59.800Z,5.10
2022-08-05T02:59:26.916Z,4.43
2022-08-05T03:01:58.107Z,4.97
2022-08-05T03:04:25.240Z,4.93
2022-08-05T03:06:57.253Z,5.03
2022-08-05T03:09:36.228Z,5.87
2022-08-05T03:12:05.594Z,5.63
2022-08-05T03:14:32.010Z,6.00
2022-08-05T03:16:59.183Z,5.80
2022-08-05T03:19:34.412Z,6.00
2022-08-05T03:22:03.238Z,5.37
2022-08-05T03:24:31.670Z,4.53
2022-08-05T03:27:00.165Z,5.23
2022-08-05T03:29:44.752Z,5.00
2022-08-05T03:32:14.472Z,4.80
2022-08-05T03:34:41.373Z,4.93
2022-08-05T03:37:07.829Z,5.00
2022-08-05T03:39:38.317Z,4.70
2022-08-05T03:42:20.699Z,4.73
2022-08-05T03:44:47.121Z,4.53
2022-08-05T03:47:14.043Z,4.10
2022-08-05T03:49:51.916Z,3.83
2022-08-05T03:52:36.555Z,4.63
2022-08-05T03:56:01.164Z,4.77
2022-08-05T03:57:57.431Z,4.83
2022-08-05T04:00:29.462Z,5.13
2022-08-05T04:02:59.462Z,4.70
2022-08-05T04:05:36.051Z,4.90
2022-08-05T04:08:14.781Z,5.03
2022-08-05T04:10:53.879Z,4.43
2022-08-05T04:13:21.613Z,3.90
2022-08-05T04:16:03.058Z,4.23
2022-08-05T04:18:32.204Z,4.87
2022-08-05T04:21:01.410Z,5.10
2022-08-05T04:24:01.706Z,4.87
2022-08-05T04:26:15.940Z,5.53
2022-08-05T04:28:51.881Z,5.30
2022-08-05T04:31:18.993Z,5.13
2022-08-05T04:34:17.343Z,5.30
2022-08-05T04:36:45.692Z,4.90
2022-08-05T04:39:12.879Z,5.57
2022-08-05T04:41:39.456Z,5.33
2022-08-05T04:44:09.415Z,5.50
2022-08-05T04:46:36.405Z,5.53
2022-08-05T04:49:02.818Z,5.83
2022-08-05T04:51:30.523Z,5.70
2022-08-05T04:53:57.107Z,5.50
2022-08-05T04:56:34.587Z,4.83
2022-08-05T04:59:22.302Z,5.50
2022-08-05T05:02:35.162Z,5.40
2022-08-05T05:04:38.144Z,5.43
2022-08-05T05:07:04.852Z,5.27
2022-08-05T05:09:37.362Z,5.70
2022-08-05T05:12:04.684Z,5.67
2022-08-05T05:14:32.672Z,4.87
2022-08-05T05:17:02.072Z,5.37
2022-08-05T05:19:36.389Z,5.13
2022-08-05T05:22:23.126Z,5.63
2022-08-05T05:24:56.822Z,6.20
2022-08-05T05:27:41.446Z,6.27
2022-08-05T05:30:29.496Z,5.97
2022-08-05T05:33:00.548Z,6.57
2022-08-05T05:35:29.147Z,6.07
2022-08-05T05:38:02.863Z,5.87
2022-08-05T05:40:30.030Z,6.47
2022-08-05T05:42:58.967Z,5.93
2022-08-05T05:45:25.587Z,6.97
2022-08-05T05:48:05.344Z,6.17
2022-08-05T05:50:34.167Z,5.70
2022-08-05T05:53:00.607Z,6.30
2022-08-05T05:55:52.281Z,6.17
2022-08-05T05:58:13.396Z,6.30
2022-08-05T06:00:40.718Z,5.40
2022-08-05T06:03:28.393Z,5.50
2022-08-05T06:05:58.663Z,5.40
2022-08-05T06:08:32.432Z,6.20
2022-08-05T06:10:59.592Z,6.23
2022-08-05T06:13:26.686Z,5.80
2022-08-05T06:16:29.971Z,6.10
2022-08-05T06:18:39.565Z,5.33
2022-08-05T06:21:08.040Z,4.73
2022-08-05T06:23:45.143Z,5.40
2022-08-05T06:26:13.670Z,5.37
2022-08-05T06:28:47.544Z,5.30
2022-08-05T06:31:18.219Z,4.63
2022-08-05T06:34:07.634Z,4.80
2022-08-05T06:36:45.987Z,4.50
2022-08-05T06:39:21.844Z,4.37
2022-08-05T06:41:50.920Z,4.20
2022-08-05T06:44:18.672Z,4.77
2022-08-05T06:46:51.087Z,4.57
2022-08-05T06:49:17.840Z,4.30
2022-08-05T06:51:45.606Z,4.40
2022-08-05T06:54:18.898Z,4.43
2022-08-05T06:56:55.143Z,4.63
2022-08-05T06:59:38.871Z,3.93
2022-08-05T07:02:08.791Z,4.30
2022-08-05T07:04:35.173Z,4.43
2022-08-05T07:07:03.047Z,3.83
2022-08-05T07:09:37.483Z,4.10
2022-08-05T07:12:07.384Z,4.13
2022-08-05T07:14:54.055Z,4.17
2022-08-05T07:17:59.044Z,4.10
2022-08-05T07:22:54.068Z,4.03
2022-08-05T07:25:53.904Z,4.07
2022-08-05T07:28:11.435Z,4.33
2022-08-05T07:30:39.721Z,3.90
2022-08-05T07:33:15.698Z,4.00
2022-08-05T07:36:03.088Z,4.13
2022-08-05T07:38:33.757Z,4.20
2022-08-05T07:42:06.798Z,4.33
2022-08-05T07:43:56.697Z,4.33
2022-08-05T07:46:25.369Z,4.03
2022-08-05T07:49:02.006Z,4.00
2022-08-05T07:51:36.699Z,3.67
2022-08-05T07:54:08.480Z,3.70
2022-08-05T07:56:59.882Z,4.07
2022-08-05T07:59:38.580Z,4.10
2022-08-05T08:02:14.530Z,4.23
2022-08-05T08:04:44.762Z,3.73
2022-08-05T08:07:11.788Z,3.50
2022-08-05T08:09:38.362Z,3.40
2022-08-05T08:12:11.501Z,3.50
2022-08-05T08:14:46.875Z,3.80
2022-08-05T08:17:15.802Z,3.70
2022-08-05T08:20:21.496Z,3.60
2022-08-05T08:22:29.901Z,3.80
2022-08-05T08:24:56.377Z,3.43
2022-08-05T08:27:35.776Z,4.00
2022-08-05T08:30:18.573Z,4.10
2022-08-05T08:32:46.855Z,4.23
2022-08-05T08:35:14.055Z,4.10
2022-08-05T08:37:40.484Z,3.90
2022-08-05T08:40:11.810Z,4.00
2022-08-05T08:42:50.634Z,3.97
2022-08-05T08:45:26.806Z,4.47
2022-08-05T08:48:07.319Z,4.53
2022-08-05T08:51:22.115Z,4.43
2022-08-05T08:53:35.334Z,4.60
2022-08-05T08:56:05.749Z,4.27
2022-08-05T08:58:43.332Z,4.33
2022-08-05T09:01:15.828Z,4.20
2022-08-05T09:03:48.322Z,3.50
2022-08-05T09:06:27.795Z,3.40
2022-08-05T09:08:55.948Z,3.23
2022-08-05T09:11:52.845Z,3.63
2022-08-05T09:14:54.512Z,3.63
2022-08-05T09:16:55.270Z,3.17
2022-08-05T09:19:27.695Z,3.97
2022-08-05T09:22:22.941Z,4.10
2022-08-05T09:24:42.475Z,3.97
2022-08-05T09:27:09.578Z,4.17
2022-08-05T09:29:48.032Z,3.60
2022-08-05T09:32:51.333Z,3.10
2022-08-05T09:35:08.974Z,3.17
2022-08-05T09:38:12.480Z,3.63
2022-08-05T09:40:31.014Z,3.43
2022-08-05T09:42:59.037Z,3.90
2022-08-05T09:46:06.253Z,3.53
2022-08-05T09:48:26.831Z,3.77
2022-08-05T09:50:57.976Z,3.77
2022-08-05T09:53:54.062Z,4.00
2022-08-05T09:56:13.041Z,3.90
2022-08-05T09:58:42.016Z,4.77
2022-08-05T10:01:14.697Z,4.00
2022-08-05T10:03:58.483Z,3.90
2022-08-05T10:06:27.550Z,3.27
2022-08-05T10:08:55.577Z,2.90
2022-08-05T10:11:22.828Z,2.73
2022-08-05T10:13:49.523Z,2.83
2022-08-05T10:16:28.915Z,3.10
2022-08-05T10:18:56.496Z,2.70
2022-08-05T10:21:23.611Z,2.60
2022-08-05T10:24:00.013Z,3.10
2022-08-05T10:26:32.304Z,3.20
2022-08-05T10:28:59.889Z,3.73
2022-08-05T10:32:51.845Z,3.87
2022-08-05T10:34:13.405Z,3.30
2022-08-05T10:36:41.405Z,3.10
2022-08-05T10:39:24.092Z,4.33
2022-08-05T10:42:01.192Z,11.03
2022-08-05T10:44:28.042Z,41.13
2022-08-05T10:46:56.375Z,26.70
2022-08-05T10:49:27.207Z,24.47
2022-08-05T10:52:03.300Z,9.77
2022-08-05T10:54:56.566Z,17.10
2022-08-05T10:57:31.701Z,7.80
2022-08-05T11:00:20.125Z,9.83
2022-08-05T11:03:24.529Z,10.27
2022-08-05T11:06:08.633Z,8.73
2022-08-05T11:09:01.633Z,6.03
2022-08-05T11:11:44.526Z,7.07
2022-08-05T11:14:11.999Z,4.27
2022-08-05T11:16:56.045Z,5.50
2022-08-05T11:20:10.253Z,3.70
2022-08-05T11:22:54.086Z,4.23
2022-08-05T11:26:04.942Z,3.40
2022-08-05T11:28:18.335Z,3.13
2022-08-05T11:31:01.687Z,3.30
2022-08-05T11:33:46.541Z,3.70
2022-08-05T11:36:16.352Z,3.53
2022-08-05T11:39:01.321Z,2.80
2022-08-05T11:41:57.888Z,2.83
2022-08-05T11:44:40.528Z,2.90
2022-08-05T11:47:14.146Z,3.73
2022-08-05T11:49:50.902Z,3.50
2022-08-05T11:52:29.363Z,3.43
2022-08-05T11:54:57.396Z,2.93
2022-08-05T11:57:28.295Z,2.83
2022-08-05T11:59:57.555Z,3.17
2022-08-05T12:02:31.240Z,2.67
2022-08-05T12:04:59.822Z,3.30
2022-08-05T12:08:07.258Z,3.50
2022-08-05T12:10:17.210Z,3.10
2022-08-05T12:12:46.619Z,2.90
2022-08-05T12:15:38.264Z,3.00
2022-08-05T12:18:12.158Z,2.83
2022-08-05T12:20:39.103Z,2.80
2022-08-05T12:23:11.937Z,2.93
2022-08-05T12:25:51.729Z,3.33
2022-08-05T12:28:36.736Z,3.30
2022-08-05T12:31:03.589Z,3.10
2022-08-05T12:33:36.740Z,3.03
2022-08-05T12:36:07.089Z,2.90
2022-08-05T12:38:36.735Z,3.30
2022-08-05T12:41:12.458Z,2.80
2022-08-05T12:43:53.221Z,3.07
2022-08-05T12:46:28.050Z,2.73
2022-08-05T12:49:19.112Z,3.20
2022-08-05T12:52:10.511Z,2.73
2022-08-05T12:54:36.838Z,2.93
2022-08-05T12:57:09.308Z,2.40
2022-08-05T13:00:08.314Z,2.83
2022-08-05T13:02:31.655Z,2.70
2022-08-05T13:04:58.824Z,2.80
2022-08-05T13:07:57.230Z,2.60
2022-08-05T13:10:13.779Z,2.38
2022-08-05T13:12:42.596Z,2.47
2022-08-05T13:15:24.466Z,2.42
2022-08-05T13:18:02.590Z,2.45
2022-08-05T13:20:35.469Z,2.42
2022-08-05T13:23:07.202Z,2.80
2022-08-05T13:25:58.808Z,2.70
2022-08-05T13:28:21.866Z,2.47
2022-08-05T13:30:48.786Z,2.27
2022-08-05T13:34:23.605Z,2.00
2022-08-05T13:36:05.289Z,2.80
2022-08-05T13:38:36.006Z,2.40
2022-08-05T13:41:03.628Z,2.30
2022-08-05T13:43:44.395Z,2.70
2022-08-05T13:46:16.330Z,2.60
2022-08-05T13:49:00.879Z,3.03
2022-08-05T13:51:40.367Z,2.00
2022-08-05T13:54:12.935Z,2.97
2022-08-05T13:56:50.843Z,2.40
2022-08-05T13:59:24.125Z,2.20
2022-08-05T14:01:57.674Z,2.43
2022-08-05T14:04:49.791Z,2.40
2022-08-05T14:07:25.689Z,2.70
2022-08-05T14:10:05.562Z,2.30
2022-08-05T14:12:34.952Z,2.37
2022-08-05T14:15:01.563Z,2.00
2022-08-05T14:17:48.079Z,2.27
2022-08-05T14:20:18.333Z,2.43
2022-08-05T14:22:50.181Z,2.87
2022-08-05T14:25:19.036Z,2.30
2022-08-05T14:27:49.423Z,2.60
2022-08-05T14:30:20.401Z,2.90
2022-08-05T14:32:47.385Z,2.70
2022-08-05T14:35:13.775Z,2.80
2022-08-05T14:37:45.288Z,3.17
2022-08-05T14:40:16.879Z,2.93
2022-08-05T14:42:43.556Z,3.27
2022-08-05T14:45:10.212Z,3.33
2022-08-05T14:48:03.574Z,3.40
2022-08-05T14:50:23.323Z,3.23
2022-08-05T14:52:56.742Z,3.00
2022-08-05T14:55:25.855Z,3.47
2022-08-05T15:01:49.118Z,4.70
2022-08-05T15:04:16.764Z,4.00
2022-08-05T15:06:46.830Z,4.20
2022-08-05T15:09:15.866Z,4.73
2022-08-05T15:11:52.706Z,4.87
2022-08-05T15:14:34.703Z,5.40
2022-08-05T15:17:04.152Z,4.90
2022-08-05T15:19:31.299Z,5.87
2022-08-05T15:21:57.914Z,5.50
2022-08-05T15:24:26.696Z,6.17
2022-08-05T15:26:53.038Z,6.17
2022-08-05T15:29:22.315Z,6.43
2022-08-05T15:31:52.750Z,6.63
2022-08-05T15:34:33.087Z,6.40
2022-08-05T15:37:03.545Z,6.13
2022-08-05T15:41:00.501Z,6.77
2022-08-05T15:42:53.910Z,6.20
2022-08-05T15:45:06.159Z,5.93
2022-08-05T15:47:32.710Z,7.07
2022-08-05T15:50:02.359Z,6.77
2022-08-05T15:52:52.799Z,6.70
2022-08-05T15:55:17.543Z,6.53
2022-08-05T15:57:46.055Z,5.73
2022-08-05T16:00:26.057Z,6.07
2022-08-05T16:03:04.499Z,5.63
2022-08-05T16:05:31.782Z,5.50
2022-08-05T16:07:58.155Z,5.80
2022-08-05T16:10:27.008Z,5.67
2022-08-05T16:12:53.638Z,5.23
2022-08-05T16:15:22.813Z,5.30
2022-08-05T16:17:57.781Z,5.50
2022-08-05T16:20:25.211Z,5.67
2022-08-05T16:22:51.586Z,5.73
2022-08-05T16:25:18.033Z,5.13
2022-08-05T16:27:47.139Z,5.00
2022-08-05T16:30:29.164Z,5.20
2022-08-05T16:32:55.742Z,4.80
2022-08-05T16:35:27.646Z,4.87
2022-08-05T16:38:01.964Z,5.10
2022-08-05T16:40:36.457Z,4.80
2022-08-05T16:43:03.243Z,4.90
2022-08-05T16:46:04.416Z,4.97
2022-08-05T16:48:25.271Z,4.90
2022-08-05T16:50:53.166Z,4.60
2022-08-05T16:53:22.854Z,4.83
2022-08-05T16:55:58.223Z,4.77
2022-08-05T16:58:25.026Z,4.93
2022-08-05T17:00:51.852Z,5.50
2022-08-05T17:03:20.028Z,4.50
2022-08-05T17:05:53.374Z,4.40
2022-08-05T17:08:36.423Z,4.40
2022-08-05T17:11:08.837Z,4.47
2022-08-05T17:13:42.226Z,4.60
2022-08-05T17:16:28.053Z,4.33
2022-08-05T17:18:55.191Z,4.47
2022-08-05T17:21:23.694Z,4.03
2022-08-05T17:24:05.572Z,4.37
2022-08-05T17:26:35.162Z,4.57
2022-08-05T17:29:04.234Z,4.40
2022-08-05T17:31:56.790Z,4.50
2022-08-05T17:34:20.494Z,5.10
2022-08-05T17:36:57.697Z,4.50
2022-08-05T17:39:34.423Z,4.17
2022-08-05T17:42:17.541Z,4.03
2022-08-05T17:44:50.526Z,4.40
2022-08-05T17:47:22.959Z,4.23
2022-08-05T17:49:59.696Z,3.73
2022-08-05T17:52:29.811Z,3.77
2022-08-05T17:54:56.238Z,3.60
2022-08-05T17:57:22.631Z,3.57
2022-08-05T18:00:03.518Z,2.83
2022-08-05T18:02:32.372Z,3.10
2022-08-05T18:05:02.734Z,2.97
2022-08-05T18:07:32.929Z,2.60
2022-08-05T18:10:09.981Z,2.80
2022-08-05T18:12:37.020Z,2.93
2022-08-05T18:15:04.769Z,2.70
2022-08-05T18:18:00.986Z,2.40
2022-08-05T18:20:19.274Z,3.40
2022-08-05T18:22:57.262Z,2.83
2022-08-05T18:25:25.159Z,2.53
2022-08-05T18:27:59.053Z,2.40
2022-08-05T18:30:29.172Z,2.50
2022-08-05T18:33:00.388Z,2.30
2022-08-05T18:35:28.268Z,2.27
2022-08-05T18:38:16.515Z,2.20
2022-08-05T18:41:54.958Z,2.50
2022-08-05T18:43:37.925Z,2.07
2022-08-05T18:46:06.921Z,2.00
2022-08-05T18:48:36.656Z,2.37
2022-08-05T18:52:06.506Z,2.20
2022-08-05T18:54:13.166Z,2.13
2022-08-05T18:56:39.640Z,2.40
2022-08-05T18:59:43.777Z,2.50
2022-08-05T19:01:58.530Z,2.40
2022-08-05T19:04:25.560Z,2.13
2022-08-05T19:06:53.655Z,2.17
2022-08-05T19:09:21.147Z,2.13
2022-08-05T19:12:01.117Z,2.50
2022-08-05T19:14:52.397Z,2.00
2022-08-05T19:17:15.818Z,2.10
2022-08-05T19:19:47.074Z,1.80
2022-08-05T19:22:17.210Z,2.30
2022-08-05T19:24:55.983Z,1.90
2022-08-05T19:27:23.476Z,2.10
2022-08-05T19:29:50.138Z,2.23
2022-08-05T19:32:16.547Z,2.30
2022-08-05T19:34:55.076Z,2.30
2022-08-05T19:37:47.090Z,2.27
2022-08-05T19:40:17.536Z,1.97
2022-08-05T19:43:04.858Z,2.57
2022-08-05T19:45:33.123Z,2.50
2022-08-05T19:47:59.965Z,2.30
2022-08-05T19:50:26.444Z,2.20
2022-08-05T19:52:52.830Z,2.70
2022-08-05T19:56:15.023Z,2.90
2022-08-05T19:58:29.484Z,2.40
2022-08-05T20:00:53.021Z,2.83
2022-08-05T20:03:19.433Z,2.93
2022-08-05T20:05:50.579Z,2.80
2022-08-05T20:08:18.156Z,3.27
2022-08-05T20:10:44.585Z,2.77
2022-08-05T20:13:15.912Z,3.03
2022-08-05T20:15:52.701Z,3.03
2022-08-05T20:18:33.663Z,3.23
2022-08-05T20:21:04.733Z,3.30
2022-08-05T20:23:39.818Z,3.30
2022-08-05T20:26:17.320Z,3.43
2022-08-05T20:28:44.831Z,3.50
2022-08-05T20:31:11.259Z,3.87
2022-08-05T20:33:37.651Z,3.60
2022-08-05T20:36:08.849Z,3.27
2022-08-05T20:38:37.439Z,3.57
2022-08-05T20:41:08.161Z,3.17
2022-08-05T20:43:59.100Z,3.70
2022-08-05T20:46:24.910Z,3.67
2022-08-05T20:48:51.649Z,3.67
2022-08-05T20:51:18.023Z,3.30
2022-08-05T20:53:44.369Z,3.17
2022-08-05T20:56:28.911Z,3.50
2022-08-05T20:58:56.487Z,3.40
2022-08-05T21:01:38.165Z,3.40
2022-08-05T21:04:07.199Z,3.73
2022-08-05T21:06:37.011Z,3.53
2022-08-05T21:09:04.945Z,3.50
2022-08-05T21:12:11.013Z,3.57
2022-08-05T21:14:18.534Z,3.50
2022-08-05T21:16:45.401Z,3.40
2022-08-05T21:19:11.897Z,3.60
2022-08-05T21:21:44.158Z,3.97
2022-08-05T21:24:16.717Z,3.70
2022-08-05T21:26:57.893Z,3.17
2022-08-05T21:29:26.473Z,3.40
2022-08-05T21:31:53.263Z,3.77
2022-08-05T21:34:20.382Z,3.53
2022-08-05T21:36:49.016Z,3.20
2022-08-05T21:39:16.971Z,3.37
2022-08-05T21:42:01.087Z,3.23
2022-08-05T21:44:28.275Z,3.27
2022-08-05T21:46:57.911Z,3.57
2022-08-05T21:49:48.501Z,3.30
2022-08-05T21:52:22.058Z,3.13
2022-08-05T21:54:55.060Z,3.40
2022-08-05T21:57:31.450Z,3.63
2022-08-05T22:00:06.070Z,3.03
2022-08-05T22:02:39.043Z,3.90
2022-08-05T22:05:06.091Z,3.10
2022-08-05T22:07:40.218Z,3.60
2022-08-05T22:10:26.750Z,4.17
2022-08-05T22:12:54.391Z,3.33
2022-08-05T22:16:01.170Z,3.17
2022-08-05T22:18:09.989Z,2.73
2022-08-05T22:20:38.884Z,2.67
2022-08-05T22:23:25.435Z,2.90
2022-08-05T22:26:30.406Z,2.90
2022-08-05T22:28:56.779Z,2.80
2022-08-05T22:31:24.797Z,2.90
2022-08-05T22:34:00.600Z,2.47
2022-08-05T22:36:27.801Z,2.60
2022-08-05T22:38:55.438Z,2.50
2022-08-05T22:41:26.307Z,2.50
2022-08-05T22:44:08.681Z,2.93
2022-08-05T22:46:39.723Z,2.37
2022-08-05T22:49:07.823Z,2.40
2022-08-05T22:52:04.814Z,2.53
2022-08-05T22:54:26.060Z,2.60
2022-08-05T22:56:54.186Z,2.33
2022-08-05T22:59:48.468Z,2.60
2022-08-05T23:02:08.488Z,2.80
2022-08-05T23:04:35.716Z,2.70
2022-08-05T23:07:02.633Z,2.20
2022-08-05T23:09:57.374Z,2.50
2022-08-05T23:12:17.932Z,1.90
2022-08-05T23:14:44.640Z,1.93
2022-08-05T23:17:24.325Z,1.97
2022-08-05T23:19:59.240Z,1.80
2022-08-05T23:22:27.393Z,1.93
2022-08-05T23:24:54.566Z,2.00
2022-08-05T23:27:21.057Z,2.00
2022-08-05T23:29:49.320Z,2.07
2022-08-05T23:32:17.071Z,2.23
2022-08-05T23:34:49.865Z,2.40
2022-08-05T23:37:17.460Z,2.20
2022-08-05T23:39:53.717Z,2.07
2022-08-05T23:42:23.382Z,1.93
2022-08-05T23:44:55.502Z,2.20
2022-08-05T23:47:21.862Z,2.37
2022-08-05T23:49:52.159Z,2.20
2022-08-05T23:52:32.369Z,2.47
2022-08-05T23:55:07.157Z,2.10
2022-08-05T23:57:36.040Z,2.60
